Metar z połowy godziny Komunikat METAR ze strony awiacja.imgw.pl Metar G00 EPBY METAR EPBY 212330Z 08011KT CAVOK 18/12 Q1011=